createdAt,value
2018-04-19T00:00:18.153Z,63.41
2018-04-19T00:00:49.725Z,63.54
2018-04-19T00:01:21.324Z,63.46
2018-04-19T00:01:52.906Z,63.47
2018-04-19T00:02:24.516Z,63.63
2018-04-19T00:02:56.102Z,63.46
2018-04-19T00:03:27.713Z,63.45
2018-04-19T00:03:59.307Z,63.58
2018-04-19T00:04:30.890Z,63.55
2018-04-19T00:05:02.492Z,63.50
2018-04-19T00:05:34.128Z,63.28
2018-04-19T00:06:05.757Z,63.39
2018-04-19T00:06:37.342Z,63.49
2018-04-19T00:07:08.946Z,63.46
2018-04-19T00:07:40.530Z,63.48
2018-04-19T00:08:12.102Z,63.45
2018-04-19T00:08:43.710Z,63.43
2018-04-19T00:09:15.308Z,63.56
2018-04-19T00:09:46.888Z,63.38
2018-04-19T00:10:18.490Z,63.42
2018-04-19T00:10:50.147Z,63.44
2018-04-19T00:11:21.726Z,63.64
2018-04-19T00:11:53.365Z,63.50
2018-04-19T00:12:24.918Z,63.39
2018-04-19T00:12:56.570Z,63.40
2018-04-19T00:13:28.168Z,63.44
2018-04-19T00:13:59.774Z,63.46
2018-04-19T00:14:31.362Z,63.67
2018-04-19T00:15:02.961Z,63.40
2018-04-19T00:15:34.574Z,63.44
2018-04-19T00:16:06.189Z,63.43
2018-04-19T00:16:37.802Z,63.63
2018-04-19T00:17:09.405Z,63.67
2018-04-19T00:17:41.073Z,63.83
2018-04-19T00:18:12.662Z,63.74
2018-04-19T00:18:44.246Z,64.12
2018-04-19T00:19:15.866Z,64.52
2018-04-19T00:19:47.473Z,64.38
2018-04-19T00:20:19.072Z,64.62
2018-04-19T00:20:50.678Z,64.46
2018-04-19T00:21:22.290Z,64.50
2018-04-19T00:21:53.888Z,64.65
2018-04-19T00:22:25.484Z,64.67
2018-04-19T00:22:57.113Z,64.62
2018-04-19T00:23:28.714Z,64.66
2018-04-19T00:24:00.349Z,64.63
2018-04-19T00:24:31.928Z,64.67
2018-04-19T00:25:03.510Z,64.80
2018-04-19T00:25:35.123Z,64.54
2018-04-19T00:26:06.714Z,64.52
2018-04-19T00:26:38.309Z,64.68
2018-04-19T00:27:09.909Z,64.64
2018-04-19T00:27:41.513Z,64.77
2018-04-19T00:28:13.097Z,64.66
2018-04-19T00:28:44.694Z,64.71
2018-04-19T00:29:16.299Z,64.71
2018-04-19T00:29:47.917Z,64.66
2018-04-19T00:30:19.502Z,64.75
2018-04-19T00:30:51.072Z,64.69
2018-04-19T00:31:22.702Z,64.72
2018-04-19T00:31:54.302Z,64.54
2018-04-19T00:32:25.881Z,64.71
2018-04-19T00:32:57.481Z,64.73
2018-04-19T00:33:29.076Z,64.74
2018-04-19T00:34:00.684Z,64.67
2018-04-19T00:34:32.290Z,64.77
2018-04-19T00:35:03.877Z,64.82
2018-04-19T00:35:35.490Z,64.77
2018-04-19T00:36:07.068Z,64.71
2018-04-19T00:36:38.702Z,64.83
2018-04-19T00:37:10.292Z,64.87
2018-04-19T00:37:41.898Z,64.75
2018-04-19T00:38:13.500Z,64.76
2018-04-19T00:38:45.082Z,64.81
2018-04-19T00:39:16.686Z,64.80
2018-04-19T00:39:48.274Z,64.79
2018-04-19T00:40:19.848Z,64.71
2018-04-19T00:40:51.458Z,64.92
2018-04-19T00:41:23.046Z,64.78
2018-04-19T00:41:54.678Z,64.84
2018-04-19T00:42:26.244Z,64.84
2018-04-19T00:42:57.850Z,64.93
2018-04-19T00:43:29.458Z,64.87
2018-04-19T00:44:01.043Z,64.84
2018-04-19T00:44:32.621Z,64.85
2018-04-19T00:45:04.226Z,64.82
2018-04-19T00:45:35.834Z,64.95
2018-04-19T00:46:07.445Z,64.94
2018-04-19T00:46:39.024Z,65.04
2018-04-19T00:47:10.650Z,65.17
2018-04-19T00:47:42.224Z,64.92
2018-04-19T00:48:13.806Z,65.33
2018-04-19T00:48:45.409Z,65.17
2018-04-19T00:49:16.998Z,65.15
2018-04-19T00:49:48.577Z,65.20
2018-04-19T00:50:20.172Z,65.18
2018-04-19T00:50:51.748Z,65.31
2018-04-19T00:51:23.334Z,65.36
2018-04-19T00:51:54.929Z,65.99
2018-04-19T00:52:26.663Z,65.80
2018-04-19T00:52:58.255Z,65.90
2018-04-19T00:53:29.829Z,65.64
2018-04-19T00:54:01.405Z,65.81
2018-04-19T00:54:33.010Z,65.62
2018-04-19T00:55:04.604Z,65.58
2018-04-19T00:55:36.180Z,65.34
2018-04-19T00:56:07.765Z,65.12
2018-04-19T00:56:39.379Z,65.18
2018-04-19T00:57:10.988Z,65.19
2018-04-19T00:57:42.622Z,65.16
2018-04-19T00:58:14.222Z,65.47
2018-04-19T00:58:45.829Z,65.53
2018-04-19T00:59:17.432Z,65.58
2018-04-19T00:59:49.010Z,65.65
2018-04-19T01:00:20.580Z,65.54
2018-04-19T01:00:52.162Z,65.79
2018-04-19T01:01:23.765Z,65.66
2018-04-19T01:01:55.363Z,65.89
2018-04-19T01:02:26.950Z,65.71
2018-04-19T01:02:58.593Z,65.78
2018-04-19T01:03:30.192Z,65.82
2018-04-19T01:04:01.798Z,65.83
2018-04-19T01:04:33.389Z,65.85
2018-04-19T01:05:04.999Z,65.85
2018-04-19T01:05:36.585Z,65.83
2018-04-19T01:06:08.194Z,65.83
2018-04-19T01:06:39.786Z,65.85
2018-04-19T01:07:11.366Z,65.91
2018-04-19T01:07:42.940Z,65.89
2018-04-19T01:08:14.541Z,65.84
2018-04-19T01:08:46.136Z,65.94
2018-04-19T01:09:17.719Z,65.87
2018-04-19T01:09:49.334Z,66.00
2018-04-19T01:10:20.985Z,66.09
2018-04-19T01:10:52.550Z,65.93
2018-04-19T01:11:24.124Z,65.99
2018-04-19T01:11:55.696Z,65.90
2018-04-19T01:12:27.281Z,66.04
2018-04-19T01:12:58.890Z,66.17
2018-04-19T01:13:30.562Z,66.30
2018-04-19T01:14:02.146Z,66.16
2018-04-19T01:14:33.746Z,66.24
2018-04-19T01:15:05.329Z,66.30
2018-04-19T01:15:36.933Z,66.45
2018-04-19T01:16:08.521Z,66.43
2018-04-19T01:16:40.128Z,66.53
2018-04-19T01:17:11.734Z,66.25
2018-04-19T01:17:43.348Z,66.45
2018-04-19T01:18:14.955Z,66.36
2018-04-19T01:18:46.543Z,66.63
2018-04-19T01:19:18.132Z,66.53
2018-04-19T01:19:49.733Z,66.58
2018-04-19T01:20:21.354Z,66.36
2018-04-19T01:20:52.960Z,66.53
2018-04-19T01:21:24.558Z,66.59
2018-04-19T01:21:56.152Z,66.55
2018-04-19T01:22:27.748Z,66.61
2018-04-19T01:22:59.358Z,66.58
2018-04-19T01:23:30.946Z,66.71
2018-04-19T01:24:02.526Z,66.52
2018-04-19T01:24:34.114Z,66.71
2018-04-19T01:25:05.696Z,66.71
2018-04-19T01:25:37.310Z,66.88
2018-04-19T01:26:08.898Z,66.97
2018-04-19T01:26:40.506Z,66.90
2018-04-19T01:27:12.095Z,66.92
2018-04-19T01:27:43.678Z,66.94
2018-04-19T01:28:15.304Z,66.81
2018-04-19T01:28:46.872Z,66.89
2018-04-19T01:29:18.479Z,67.00
2018-04-19T01:29:50.090Z,66.74
2018-04-19T01:30:21.693Z,67.04
2018-04-19T01:30:53.282Z,67.07
2018-04-19T01:31:24.863Z,67.01
2018-04-19T01:31:56.471Z,67.05
2018-04-19T01:32:28.068Z,66.92
2018-04-19T01:32:59.660Z,66.87
2018-04-19T01:33:31.283Z,67.08
2018-04-19T01:34:02.867Z,67.04
2018-04-19T01:34:34.480Z,67.08
2018-04-19T01:35:06.082Z,67.13
2018-04-19T01:35:37.673Z,67.03
2018-04-19T01:36:09.244Z,67.21
2018-04-19T01:36:40.846Z,67.16
2018-04-19T01:37:12.435Z,67.12
2018-04-19T01:37:44.041Z,67.11
2018-04-19T01:38:15.653Z,67.12
2018-04-19T01:38:47.306Z,67.51
2018-04-19T01:39:18.919Z,67.26
2018-04-19T01:39:50.501Z,67.19
2018-04-19T01:40:22.110Z,67.28
2018-04-19T01:40:53.698Z,67.40
2018-04-19T01:41:25.340Z,67.34
2018-04-19T01:41:56.950Z,67.34
2018-04-19T01:42:28.548Z,67.38
2018-04-19T01:43:00.120Z,67.40
2018-04-19T01:43:31.708Z,67.61
2018-04-19T01:44:03.292Z,67.34
2018-04-19T01:44:34.871Z,67.43
2018-04-19T01:45:06.463Z,67.26
2018-04-19T01:45:38.050Z,67.29
2018-04-19T01:46:09.633Z,67.48
2018-04-19T01:46:41.394Z,67.41
2018-04-19T01:47:12.983Z,67.42
2018-04-19T01:47:44.570Z,67.38
2018-04-19T01:48:16.173Z,67.33
2018-04-19T01:48:47.759Z,67.32
2018-04-19T01:49:19.333Z,67.32
2018-04-19T01:49:50.916Z,67.18
2018-04-19T01:50:22.494Z,67.42
2018-04-19T01:50:54.108Z,67.28
2018-04-19T01:51:25.718Z,67.20
2018-04-19T01:51:57.330Z,67.11
2018-04-19T01:52:28.942Z,67.29
2018-04-19T01:53:00.550Z,67.24
2018-04-19T01:53:32.162Z,67.11
2018-04-19T01:54:03.756Z,67.05
2018-04-19T01:54:35.356Z,67.02
2018-04-19T01:55:06.942Z,67.40
2018-04-19T01:55:38.545Z,67.21
2018-04-19T01:56:10.198Z,67.25
2018-04-19T01:56:41.776Z,67.26
2018-04-19T01:57:13.358Z,67.13
2018-04-19T01:57:44.943Z,67.01
2018-04-19T01:58:16.549Z,67.19
2018-04-19T01:58:48.198Z,67.03
2018-04-19T01:59:19.806Z,66.99
2018-04-19T01:59:51.420Z,67.13
2018-04-19T02:00:23.021Z,66.93
2018-04-19T02:00:54.616Z,66.79
2018-04-19T02:01:26.262Z,66.80
2018-04-19T02:01:57.874Z,66.69
2018-04-19T02:02:29.454Z,66.86
2018-04-19T02:03:01.048Z,66.82
2018-04-19T02:03:32.654Z,66.87
2018-04-19T02:04:04.262Z,66.83
2018-04-19T02:04:35.850Z,66.66
2018-04-19T02:05:07.453Z,66.72
2018-04-19T02:05:39.052Z,66.83
2018-04-19T02:06:10.699Z,66.65
2018-04-19T02:06:42.286Z,66.62
2018-04-19T02:07:13.897Z,66.70
2018-04-19T02:07:45.522Z,66.64
2018-04-19T02:08:17.110Z,66.71
2018-04-19T02:08:48.714Z,66.68
2018-04-19T02:09:20.309Z,66.69
2018-04-19T02:09:51.914Z,66.87
2018-04-19T02:10:23.498Z,66.71
2018-04-19T02:10:55.082Z,66.80
2018-04-19T02:11:26.735Z,66.67
2018-04-19T02:11:58.349Z,66.75
2018-04-19T02:12:29.962Z,66.67
2018-04-19T02:13:01.574Z,66.68
2018-04-19T02:13:33.162Z,66.71
2018-04-19T02:14:04.744Z,66.66
2018-04-19T02:14:36.347Z,66.74
2018-04-19T02:15:07.978Z,66.70
2018-04-19T02:15:39.558Z,66.77
2018-04-19T02:16:11.146Z,66.90
2018-04-19T02:16:42.751Z,66.83
2018-04-19T02:17:14.361Z,66.83
2018-04-19T02:17:45.939Z,66.77
2018-04-19T02:18:17.552Z,66.68
2018-04-19T02:18:49.163Z,66.72
2018-04-19T02:19:20.737Z,66.76
2018-04-19T02:19:52.332Z,66.68
2018-04-19T02:20:23.918Z,66.71
2018-04-19T02:20:55.502Z,66.68
2018-04-19T02:21:27.075Z,66.74
2018-04-19T02:21:58.652Z,66.84
2018-04-19T02:22:30.238Z,66.69
2018-04-19T02:23:01.842Z,66.76
2018-04-19T02:23:33.450Z,66.78
2018-04-19T02:24:05.033Z,66.78
2018-04-19T02:24:36.638Z,66.92
2018-04-19T02:25:08.253Z,66.84
2018-04-19T02:25:39.835Z,66.85
2018-04-19T02:26:11.469Z,66.88
2018-04-19T02:26:43.058Z,66.74
2018-04-19T02:27:14.661Z,66.73
2018-04-19T02:27:46.264Z,66.81
2018-04-19T02:28:17.860Z,66.99
2018-04-19T02:28:49.521Z,66.87
2018-04-19T02:29:21.098Z,66.83
2018-04-19T02:29:52.676Z,66.85
2018-04-19T02:30:24.365Z,66.86
2018-04-19T02:30:55.954Z,66.92
2018-04-19T02:31:27.542Z,66.92
2018-04-19T02:31:59.136Z,67.00
2018-04-19T02:32:30.722Z,67.01
2018-04-19T02:33:02.330Z,66.97
2018-04-19T02:33:33.918Z,66.96
2018-04-19T02:34:05.566Z,66.97
2018-04-19T02:34:37.151Z,66.96
2018-04-19T02:35:08.755Z,66.93
2018-04-19T02:35:40.376Z,66.86
2018-04-19T02:36:11.980Z,66.86
2018-04-19T02:36:43.575Z,66.94
2018-04-19T02:37:15.185Z,66.94
2018-04-19T02:37:46.829Z,66.86
2018-04-19T02:38:18.473Z,66.87
2018-04-19T02:38:50.050Z,66.87
2018-04-19T02:39:21.625Z,66.93
2018-04-19T02:39:53.261Z,67.01
2018-04-19T02:40:24.870Z,66.96
2018-04-19T02:40:56.477Z,66.80
2018-04-19T02:41:28.073Z,66.92
2018-04-19T02:41:59.687Z,66.83
2018-04-19T02:42:31.299Z,66.80
2018-04-19T02:43:02.906Z,66.88
2018-04-19T02:43:34.514Z,66.92
2018-04-19T02:44:06.089Z,66.88
2018-04-19T02:44:37.708Z,66.78
2018-04-19T02:45:09.311Z,66.80
2018-04-19T02:45:40.923Z,66.90
2018-04-19T02:46:12.528Z,66.78
2018-04-19T02:46:44.134Z,66.94
2018-04-19T02:47:15.786Z,66.78
2018-04-19T02:47:47.450Z,66.90
2018-04-19T02:48:19.044Z,66.79
2018-04-19T02:48:50.659Z,66.84
2018-04-19T02:49:22.260Z,66.94
2018-04-19T02:49:53.832Z,66.86
2018-04-19T02:50:25.480Z,66.98
2018-04-19T02:50:57.049Z,67.00
2018-04-19T02:51:28.655Z,66.96
2018-04-19T02:52:00.255Z,66.93
2018-04-19T02:52:31.868Z,67.00
2018-04-19T02:53:03.530Z,67.06
2018-04-19T02:53:35.126Z,67.04
2018-04-19T02:54:06.715Z,66.98
2018-04-19T02:54:38.299Z,67.06
2018-04-19T02:55:10.202Z,67.05
2018-04-19T02:55:41.790Z,67.21
2018-04-19T02:56:13.390Z,67.11
2018-04-19T02:56:45.008Z,67.22
2018-04-19T02:57:16.626Z,67.10
2018-04-19T02:57:48.206Z,67.15
2018-04-19T02:58:19.820Z,67.37
2018-04-19T02:58:51.430Z,67.41
2018-04-19T02:59:23.022Z,67.29
2018-04-19T02:59:54.875Z,67.20
2018-04-19T03:00:26.489Z,67.23
2018-04-19T03:00:58.074Z,67.22
2018-04-19T03:01:29.659Z,67.23
2018-04-19T03:02:01.267Z,67.34
2018-04-19T03:02:32.850Z,67.12
2018-04-19T03:03:04.436Z,67.08
2018-04-19T03:03:36.276Z,67.06
2018-04-19T03:04:07.882Z,67.27
2018-04-19T03:04:39.466Z,67.08
2018-04-19T03:05:11.073Z,67.13
2018-04-19T03:05:42.650Z,67.22
2018-04-19T03:06:14.271Z,67.06
2018-04-19T03:06:45.857Z,67.53
2018-04-19T03:07:17.443Z,67.36
2018-04-19T03:07:49.045Z,67.20
2018-04-19T03:08:20.623Z,67.26
2018-04-19T03:08:52.262Z,67.26
2018-04-19T03:09:23.856Z,67.34
2018-04-19T03:09:55.461Z,67.39
2018-04-19T03:10:27.049Z,67.33
2018-04-19T03:10:58.673Z,67.25
2018-04-19T03:11:30.245Z,67.27
2018-04-19T03:12:01.834Z,67.27
2018-04-19T03:12:33.494Z,67.40
2018-04-19T03:13:05.050Z,67.60
2018-04-19T03:13:36.644Z,67.27
2018-04-19T03:14:08.255Z,67.43
2018-04-19T03:14:39.879Z,67.46
2018-04-19T03:15:11.513Z,67.48
2018-04-19T03:15:43.084Z,67.37
2018-04-19T03:16:14.669Z,67.45
2018-04-19T03:16:46.249Z,67.31
2018-04-19T03:17:17.839Z,67.46
2018-04-19T03:17:49.450Z,67.32
2018-04-19T03:18:21.068Z,67.23
2018-04-19T03:18:52.679Z,67.22
2018-04-19T03:19:24.303Z,67.25
2018-04-19T03:19:55.886Z,67.22
2018-04-19T03:20:27.559Z,67.29
2018-04-19T03:20:59.112Z,67.13
2018-04-19T03:21:30.694Z,67.15
2018-04-19T03:22:02.278Z,67.03
2018-04-19T03:22:33.889Z,67.18
2018-04-19T03:23:05.480Z,66.99
2018-04-19T03:23:37.062Z,67.05
2018-04-19T03:24:08.665Z,67.23
2018-04-19T03:24:40.237Z,66.94
2018-04-19T03:25:11.915Z,66.93
2018-04-19T03:25:43.531Z,66.91
2018-04-19T03:26:15.122Z,66.84
2018-04-19T03:26:46.706Z,66.87
2018-04-19T03:27:18.321Z,66.92
2018-04-19T03:27:49.945Z,66.89
2018-04-19T03:28:21.517Z,66.84
2018-04-19T03:28:53.098Z,66.76
2018-04-19T03:29:24.681Z,66.84
2018-04-19T03:29:56.261Z,66.82
2018-04-19T03:30:27.897Z,66.72
2018-04-19T03:30:59.519Z,66.83
2018-04-19T03:31:31.116Z,66.70
2018-04-19T03:32:02.730Z,66.84
2018-04-19T03:32:34.318Z,66.87
2018-04-19T03:33:05.936Z,66.86
2018-04-19T03:33:37.532Z,66.78
2018-04-19T03:34:09.138Z,66.92
2018-04-19T03:34:40.720Z,66.74
2018-04-19T03:35:12.302Z,66.89
2018-04-19T03:35:43.970Z,66.84
2018-04-19T03:36:15.568Z,66.84
2018-04-19T03:36:47.222Z,66.89
2018-04-19T03:37:18.885Z,66.91
2018-04-19T03:37:50.469Z,66.92
2018-04-19T03:38:22.040Z,66.84
2018-04-19T03:38:53.627Z,66.92
2018-04-19T03:39:25.238Z,66.90
2018-04-19T03:39:56.846Z,66.79
2018-04-19T03:40:28.454Z,66.73
2018-04-19T03:41:00.070Z,66.90
2018-04-19T03:41:31.644Z,66.97
2018-04-19T03:42:03.254Z,66.84
2018-04-19T03:42:34.882Z,66.89
2018-04-19T03:43:06.462Z,66.92
2018-04-19T03:43:38.057Z,66.96
2018-04-19T03:44:09.651Z,67.02
2018-04-19T03:44:41.242Z,66.96
2018-04-19T03:45:12.853Z,66.85
2018-04-19T03:45:44.442Z,66.97
2018-04-19T03:46:16.043Z,66.91
2018-04-19T03:46:47.696Z,66.87
2018-04-19T03:47:19.278Z,66.97
2018-04-19T03:47:50.882Z,67.03
2018-04-19T03:48:22.470Z,66.99
2018-04-19T03:48:54.077Z,67.07
2018-04-19T03:49:25.662Z,66.94
2018-04-19T03:49:57.236Z,67.01
2018-04-19T03:50:28.825Z,66.96
2018-04-19T03:51:00.426Z,67.13
2018-04-19T03:51:32.001Z,66.94
2018-04-19T03:52:03.586Z,67.05
2018-04-19T03:52:35.157Z,66.99
2018-04-19T03:53:06.762Z,66.90
2018-04-19T03:53:38.338Z,66.94
2018-04-19T03:54:09.926Z,66.99
2018-04-19T03:54:41.524Z,66.99
2018-04-19T03:55:13.124Z,66.92
2018-04-19T03:55:44.733Z,66.93
2018-04-19T03:56:16.350Z,67.23
2018-04-19T03:56:47.939Z,67.18
2018-04-19T03:57:19.575Z,67.19
2018-04-19T03:57:51.161Z,67.24
2018-04-19T03:58:22.744Z,67.34
2018-04-19T03:58:54.349Z,67.35
2018-04-19T03:59:25.939Z,67.32
2018-04-19T03:59:57.538Z,67.62
2018-04-19T04:00:29.126Z,67.48
2018-04-19T04:01:00.752Z,67.35
2018-04-19T04:01:32.314Z,67.47
2018-04-19T04:02:03.884Z,67.42
2018-04-19T04:02:35.520Z,67.33
2018-04-19T04:03:07.116Z,67.47
2018-04-19T04:03:38.703Z,67.51
2018-04-19T04:04:10.294Z,67.46
2018-04-19T04:04:41.898Z,67.60
2018-04-19T04:05:13.492Z,67.57
2018-04-19T04:05:45.078Z,67.44
2018-04-19T04:06:16.680Z,67.52
2018-04-19T04:06:48.300Z,67.50
2018-04-19T04:07:19.890Z,67.57
2018-04-19T04:07:51.514Z,67.61
2018-04-19T04:08:23.108Z,67.65
2018-04-19T04:08:54.720Z,67.62
2018-04-19T04:09:26.309Z,67.65
2018-04-19T04:09:57.920Z,67.70
2018-04-19T04:10:29.497Z,67.64
2018-04-19T04:11:01.103Z,67.69
2018-04-19T04:11:33.319Z,67.70
2018-04-19T04:12:04.916Z,67.63
2018-04-19T04:12:36.506Z,67.69
2018-04-19T04:13:08.105Z,67.84
2018-04-19T04:13:39.694Z,67.61
2018-04-19T04:14:11.327Z,67.72
2018-04-19T04:14:42.971Z,67.69
2018-04-19T04:15:14.570Z,67.62
2018-04-19T04:15:46.182Z,67.64
2018-04-19T04:16:17.780Z,67.60
2018-04-19T04:16:49.413Z,67.66
2018-04-19T04:17:21.002Z,67.72
2018-04-19T04:17:52.608Z,67.87
2018-04-19T04:18:24.261Z,67.85
2018-04-19T04:18:55.874Z,67.81
2018-04-19T04:19:27.464Z,67.83
2018-04-19T04:19:59.037Z,67.77
2018-04-19T04:20:30.649Z,67.88
2018-04-19T04:21:02.228Z,67.91
2018-04-19T04:21:33.834Z,67.68
2018-04-19T04:22:05.447Z,67.83
2018-04-19T04:22:37.025Z,67.80
2018-04-19T04:23:08.638Z,67.87
2018-04-19T04:23:40.236Z,67.94
2018-04-19T04:24:11.822Z,67.75
2018-04-19T04:24:43.447Z,68.09
2018-04-19T04:25:15.055Z,67.90
2018-04-19T04:25:46.667Z,67.92
2018-04-19T04:26:18.273Z,67.98
2018-04-19T04:26:49.857Z,68.16
2018-04-19T04:27:21.461Z,68.27
2018-04-19T04:27:53.084Z,68.44
2018-04-19T04:28:24.689Z,68.04
2018-04-19T04:28:56.278Z,68.15
2018-04-19T04:29:27.881Z,68.12
2018-04-19T04:29:59.456Z,68.14
2018-04-19T04:30:31.042Z,68.04
2018-04-19T04:31:02.631Z,68.19
2018-04-19T04:31:34.233Z,68.01
2018-04-19T04:32:05.842Z,68.00
2018-04-19T04:32:37.430Z,68.03
2018-04-19T04:33:09.067Z,68.06
2018-04-19T04:33:40.654Z,67.83
2018-04-19T04:34:12.262Z,67.79
2018-04-19T04:34:43.846Z,67.98
2018-04-19T04:35:15.460Z,67.48
2018-04-19T04:35:47.050Z,67.47
2018-04-19T04:36:18.641Z,67.79
2018-04-19T04:36:50.222Z,67.47
2018-04-19T04:37:21.806Z,67.45
2018-04-19T04:37:53.413Z,67.59
2018-04-19T04:38:25.028Z,67.53
2018-04-19T04:38:56.622Z,67.41
2018-04-19T04:39:28.226Z,67.38
2018-04-19T04:39:59.826Z,67.31
2018-04-19T04:40:31.433Z,67.28
2018-04-19T04:41:03.013Z,67.20
2018-04-19T04:41:34.622Z,67.26
2018-04-19T04:42:06.234Z,67.25
2018-04-19T04:42:37.841Z,67.23
2018-04-19T04:43:09.494Z,67.08
2018-04-19T04:43:41.082Z,67.17
2018-04-19T04:44:12.694Z,66.91
2018-04-19T04:44:44.282Z,66.99
2018-04-19T04:45:15.871Z,66.75
2018-04-19T04:45:47.454Z,66.43
2018-04-19T04:46:19.058Z,66.63
2018-04-19T04:46:50.686Z,66.45
2018-04-19T04:47:22.291Z,66.31
2018-04-19T04:47:53.967Z,66.39
2018-04-19T04:48:25.546Z,66.32
2018-04-19T04:48:57.147Z,66.62
2018-04-19T04:49:28.721Z,66.69
2018-04-19T04:50:00.322Z,66.33
2018-04-19T04:50:31.918Z,67.18
2018-04-19T04:51:03.514Z,66.61
2018-04-19T04:51:35.151Z,66.43
2018-04-19T04:52:06.725Z,66.94
2018-04-19T04:52:38.320Z,66.45
2018-04-19T04:53:09.925Z,66.72
2018-04-19T04:53:41.547Z,66.85
2018-04-19T04:54:13.133Z,67.78
2018-04-19T04:54:44.729Z,66.72
2018-04-19T04:55:16.342Z,67.02
2018-04-19T04:55:47.920Z,66.81
2018-04-19T04:56:19.524Z,66.87
2018-04-19T04:56:51.184Z,67.29
2018-04-19T04:57:22.780Z,67.18
2018-04-19T04:57:54.356Z,67.43
2018-04-19T04:58:25.932Z,67.46
2018-04-19T04:58:57.533Z,67.44
2018-04-19T04:59:29.124Z,67.25
2018-04-19T05:00:00.778Z,67.40
2018-04-19T05:00:32.374Z,67.36
2018-04-19T05:01:03.977Z,67.29
2018-04-19T05:01:35.625Z,67.78
2018-04-19T05:02:07.212Z,67.45
2018-04-19T05:02:38.798Z,67.35
2018-04-19T05:03:10.406Z,67.28
2018-04-19T05:03:42.014Z,67.83
2018-04-19T05:04:13.602Z,67.67
2018-04-19T05:04:45.186Z,67.72
2018-04-19T05:05:16.770Z,67.54
2018-04-19T05:05:48.397Z,67.85
2018-04-19T05:06:20.015Z,67.77
2018-04-19T05:06:51.613Z,67.80
2018-04-19T05:07:23.205Z,67.76
2018-04-19T05:07:54.792Z,67.89
2018-04-19T05:08:26.430Z,67.76
2018-04-19T05:08:58.004Z,67.83
2018-04-19T05:09:29.598Z,67.76
2018-04-19T05:10:01.197Z,67.77
2018-04-19T05:10:32.801Z,67.96
2018-04-19T05:11:04.405Z,67.86
2018-04-19T05:11:35.997Z,67.85
2018-04-19T05:12:07.588Z,67.98
2018-04-19T05:12:39.176Z,67.87
2018-04-19T05:13:10.830Z,67.88
2018-04-19T05:13:42.416Z,67.87
2018-04-19T05:14:14.026Z,67.92
2018-04-19T05:14:45.604Z,67.89
2018-04-19T05:15:17.205Z,67.91
2018-04-19T05:15:48.810Z,67.93
2018-04-19T05:16:20.398Z,67.91
2018-04-19T05:16:52.002Z,67.94
2018-04-19T05:17:23.590Z,67.94
2018-04-19T05:17:55.175Z,68.01
2018-04-19T05:18:26.798Z,68.23
2018-04-19T05:18:58.375Z,68.22
2018-04-19T05:19:29.979Z,68.20
2018-04-19T05:20:01.570Z,68.13
2018-04-19T05:20:33.182Z,68.16
2018-04-19T05:21:04.794Z,68.23
2018-04-19T05:21:36.549Z,68.30
2018-04-19T05:22:08.116Z,68.40
2018-04-19T05:22:39.693Z,68.47
2018-04-19T05:23:11.266Z,68.38
2018-04-19T05:23:42.855Z,68.25
2018-04-19T05:24:14.442Z,68.30
2018-04-19T05:24:46.051Z,68.25
2018-04-19T05:25:17.634Z,68.38
2018-04-19T05:25:49.221Z,68.30
2018-04-19T05:26:20.822Z,68.37
2018-04-19T05:26:52.420Z,68.47
2018-04-19T05:27:24.030Z,68.32
2018-04-19T05:27:55.640Z,68.30
2018-04-19T05:28:27.250Z,68.40
2018-04-19T05:28:58.861Z,68.54
2018-04-19T05:29:30.453Z,68.39
2018-04-19T05:30:02.075Z,68.64
2018-04-19T05:30:33.677Z,69.42
2018-04-19T05:31:05.262Z,69.00
2018-04-19T05:31:36.871Z,63.07
2018-04-19T05:32:08.526Z,59.30
2018-04-19T05:32:40.115Z,57.31
2018-04-19T05:33:11.721Z,55.84
2018-04-19T05:33:43.329Z,53.23
2018-04-19T05:34:14.932Z,51.40
2018-04-19T05:34:46.532Z,51.33
2018-04-19T05:35:18.118Z,51.65
2018-04-19T05:35:49.721Z,52.74
2018-04-19T05:36:21.350Z,51.41
2018-04-19T05:36:52.953Z,50.56
2018-04-19T05:37:24.534Z,53.25
2018-04-19T05:37:56.137Z,54.15
2018-04-19T05:38:27.805Z,54.71
2018-04-19T05:38:59.422Z,55.80
2018-04-19T05:39:31.020Z,56.16
2018-04-19T05:40:02.612Z,57.11
2018-04-19T05:40:34.192Z,57.37
2018-04-19T05:41:05.820Z,57.02
2018-04-19T05:41:37.427Z,57.49
2018-04-19T05:42:09.034Z,57.36
2018-04-19T05:42:40.622Z,57.06
2018-04-19T05:43:12.203Z,56.90
2018-04-19T05:43:43.796Z,56.26
2018-04-19T05:44:15.376Z,56.33
2018-04-19T05:44:47.000Z,56.98
2018-04-19T05:45:18.645Z,56.75
2018-04-19T05:45:50.230Z,57.03
2018-04-19T05:46:21.839Z,57.23
2018-04-19T05:46:53.425Z,57.85
2018-04-19T05:47:25.016Z,57.96
2018-04-19T05:47:56.634Z,58.23
2018-04-19T05:48:28.290Z,58.19
2018-04-19T05:48:59.902Z,58.41
2018-04-19T05:49:31.494Z,58.50
2018-04-19T05:50:03.074Z,58.55
2018-04-19T05:50:34.644Z,58.49
2018-04-19T05:51:06.266Z,58.64
2018-04-19T05:51:37.850Z,58.85
2018-04-19T05:52:09.450Z,58.78
2018-04-19T05:52:41.024Z,58.97
2018-04-19T05:53:12.611Z,59.26
2018-04-19T05:53:44.208Z,59.44
2018-04-19T05:54:15.797Z,59.36
2018-04-19T05:54:47.414Z,59.66
2018-04-19T05:55:19.061Z,59.61
2018-04-19T05:55:50.640Z,59.60
2018-04-19T05:56:22.231Z,59.53
2018-04-19T05:56:53.818Z,59.65
2018-04-19T05:57:25.414Z,59.54
2018-04-19T05:57:57.017Z,59.45
2018-04-19T05:58:28.602Z,59.68
2018-04-19T05:59:00.188Z,59.68
2018-04-19T05:59:31.760Z,59.78
2018-04-19T06:00:03.400Z,59.83
2018-04-19T06:00:35.066Z,59.65
2018-04-19T06:01:06.670Z,59.76
2018-04-19T06:01:38.269Z,59.89
2018-04-19T06:02:09.864Z,59.90
2018-04-19T06:02:41.449Z,59.90
2018-04-19T06:03:13.020Z,59.70
2018-04-19T06:03:44.612Z,59.84
2018-04-19T06:04:16.198Z,59.92
2018-04-19T06:04:47.786Z,59.96
2018-04-19T06:05:19.370Z,59.91
2018-04-19T06:05:51.030Z,59.95
2018-04-19T06:06:22.634Z,59.98
2018-04-19T06:06:54.246Z,60.01
2018-04-19T06:07:25.854Z,60.13
2018-04-19T06:07:57.443Z,60.16
2018-04-19T06:08:29.010Z,60.17
2018-04-19T06:09:00.633Z,60.06
2018-04-19T06:09:32.237Z,60.11
2018-04-19T06:10:03.846Z,60.11
2018-04-19T06:10:35.430Z,60.07
2018-04-19T06:11:07.058Z,60.00
2018-04-19T06:11:38.662Z,60.08
2018-04-19T06:12:10.250Z,60.16
2018-04-19T06:12:41.862Z,60.23
2018-04-19T06:13:13.470Z,60.25
2018-04-19T06:13:45.083Z,60.24
2018-04-19T06:14:16.676Z,60.25
2018-04-19T06:14:48.316Z,60.30
2018-04-19T06:15:19.957Z,60.16
2018-04-19T06:15:51.533Z,59.96
2018-04-19T06:16:23.193Z,59.88
2018-04-19T06:16:54.805Z,59.75
2018-04-19T06:17:26.410Z,59.76
2018-04-19T06:17:58.022Z,59.68
2018-04-19T06:18:29.635Z,59.65
2018-04-19T06:19:01.236Z,59.60
2018-04-19T06:19:32.858Z,59.56
2018-04-19T06:20:04.465Z,59.59
2018-04-19T06:20:36.113Z,59.61
2018-04-19T06:21:07.703Z,59.54
2018-04-19T06:21:39.333Z,59.63
2018-04-19T06:22:10.958Z,59.62
2018-04-19T06:22:42.578Z,59.65
2018-04-19T06:23:14.185Z,59.71
2018-04-19T06:23:45.771Z,59.79
2018-04-19T06:24:17.358Z,59.78
2018-04-19T06:24:48.965Z,59.76
2018-04-19T06:25:20.554Z,59.76
2018-04-19T06:25:52.508Z,59.78
2018-04-19T06:26:24.174Z,59.85
2018-04-19T06:26:55.782Z,59.88
2018-04-19T06:27:27.352Z,59.89
2018-04-19T06:27:58.958Z,59.92
2018-04-19T06:28:30.574Z,59.99
2018-04-19T06:29:02.186Z,60.02
2018-04-19T06:29:33.778Z,60.04
2018-04-19T06:30:05.398Z,60.08
2018-04-19T06:30:37.046Z,60.12
2018-04-19T06:31:08.650Z,60.17
2018-04-19T06:31:40.238Z,60.16
2018-04-19T06:32:11.838Z,60.28
2018-04-19T06:32:43.435Z,60.29
2018-04-19T06:33:15.026Z,60.26
2018-04-19T06:33:46.630Z,60.32
2018-04-19T06:34:18.232Z,60.31
2018-04-19T06:34:49.817Z,60.36
2018-04-19T06:35:21.402Z,60.42
2018-04-19T06:35:53.056Z,60.48
2018-04-19T06:36:24.670Z,60.50
2018-04-19T06:36:56.284Z,60.56
2018-04-19T06:37:27.898Z,60.55
2018-04-19T06:37:59.496Z,60.57
2018-04-19T06:38:31.095Z,60.60
2018-04-19T06:39:02.706Z,60.66
2018-04-19T06:39:34.294Z,60.64
2018-04-19T06:40:05.878Z,60.70
2018-04-19T06:40:37.466Z,60.72
2018-04-19T06:41:09.070Z,60.71
2018-04-19T06:41:40.687Z,60.72
2018-04-19T06:42:12.350Z,60.75
2018-04-19T06:42:43.938Z,60.73
2018-04-19T06:43:15.532Z,60.80
2018-04-19T06:43:47.126Z,60.91
2018-04-19T06:44:18.741Z,60.83
2018-04-19T06:44:50.362Z,60.82
2018-04-19T06:45:21.960Z,60.92
2018-04-19T06:45:53.536Z,60.92
2018-04-19T06:46:25.110Z,60.92
2018-04-19T06:46:56.827Z,60.98